Station History

Weather Underground - logo

Station Historical Data
Daily Summary for February 6, 2018 Units:  Metric    English   Both
« Previous Day
Next Day »
Daily Weekly Monthly Yearly Custom
  High: Low: Average:
Temperature: 22.4 °C 7.1 °C 13.8 °C
Dew Point: 13 °C 5.9 °C 9.5 °C
Humidity: 94 % 46 % 77 %
Wind Speed: 9.3 km/h 0 km/h 0.8 km/h
Wind Gust: 9.3 km/h - -
Wind:- - WSW
Pressure: 1021.9 hPa 1015.5 hPa -
Precipitation: 0 mm    
Historical Graphs
 
 
Tabular Data for February 6, 2018
Time Temperature Dew Point Pressure Wind Wind Speed Wind Gust Humidity Rainfall Rate (Hourly)
00:00 10.9 °C 9.1 °C 1016.1 hPa Calm     88 % 0 mm
00:05 10.8 °C 8.8 °C 1016.1 hPa Calm     87 % 0 mm
00:10 10.6 °C 8.6 °C 1015.8 hPa Calm     87 % 0 mm
00:15 10.3 °C 8.2 °C 1016.1 hPa Calm     87 % 0 mm
00:20 10.2 °C 8.3 °C 1015.8 hPa Calm     88 % 0 mm
00:25 10 °C 8.1 °C 1015.8 hPa Calm     88 % 0 mm
00:30 9.7 °C 7.8 °C 1015.8 hPa Calm     88 % 0 mm
00:35 9.6 °C 7.7 °C 1015.8 hPa Calm     88 % 0 mm
00:40 9.4 °C 7.7 °C 1015.8 hPa Calm     89 % 0 mm
00:45 9.3 °C 7.8 °C 1015.8 hPa Calm     90 % 0 mm
00:51 9.5 °C 8.1 °C 1015.8 hPa Calm     91 % 0 mm
00:56 9.9 °C 8.5 °C 1015.8 hPa Calm     91 % 0 mm
01:01 10.2 °C 8.7 °C 1015.8 hPa Calm     90 % 0 mm
01:06 10.3 °C 8.6 °C 1015.8 hPa Calm     89 % 0 mm
01:11 10.4 °C 8.9 °C 1015.8 hPa Calm     90 % 0 mm
01:16 10.7 °C 9.1 °C 1015.8 hPa SE 1.9 km/h   90 % 0 mm
01:21 10.8 °C 9.1 °C 1015.5 hPa West 1.6 km/h   89 % 0 mm
01:26 10.9 °C 9.1 °C 1015.8 hPa NNW 1.9 km/h 1.9 km/h 88 % 0 mm
01:31 11.1 °C 9.2 °C 1015.8 hPa Calm     88 % 0 mm
01:36 11 °C 9.1 °C 1015.8 hPa NNW 1.9 km/h 1.9 km/h 88 % 0 mm
01:41 11 °C 9.1 °C 1015.8 hPa Calm     88 % 0 mm
01:46 10.8 °C 8.8 °C 1015.8 hPa Calm     87 % 0 mm
01:51 10.4 °C 8.2 °C 1015.8 hPa Calm     86 % 0 mm
01:56 9.9 °C 7.8 °C 1015.8 hPa Calm     87 % 0 mm
02:01 9.4 °C 7.6 °C 1015.8 hPa Calm     88 % 0 mm
02:06 9.1 °C 7.2 °C 1015.8 hPa NNW 9.3 km/h 9.3 km/h 88 % 0 mm
02:11 8.9 °C 7.2 °C 1015.8 hPa Calm     89 % 0 mm
02:16 8.6 °C 7.1 °C 1015.8 hPa Calm     90 % 0 mm
02:21 8.5 °C 6.9 °C 1015.8 hPa Calm     90 % 0 mm
02:26 8.5 °C 7.1 °C 1015.8 hPa Calm     91 % 0 mm
02:31 8.4 °C 7.1 °C 1015.8 hPa Calm     91 % 0 mm
02:36 8.4 °C 7.2 °C 1015.8 hPa Calm     92 % 0 mm
02:41 8.3 °C 7.1 °C 1015.8 hPa Calm     92 % 0 mm
02:46 8.3 °C 7.1 °C 1015.8 hPa Calm     92 % 0 mm
02:51 8.3 °C 7.1 °C 1015.8 hPa Calm     92 % 0 mm
02:56 8.2 °C 6.9 °C 1015.8 hPa Calm     92 % 0 mm
03:01 8.1 °C 6.9 °C 1015.8 hPa Calm     92 % 0 mm
03:06 8.2 °C 7.2 °C 1015.8 hPa Calm     93 % 0 mm
03:11 8.2 °C 7 °C 1015.8 hPa Calm     92 % 0 mm
03:16 8.2 °C 7.2 °C 1015.8 hPa Calm     93 % 0 mm
03:21 8.2 °C 6.9 °C 1015.8 hPa Calm     92 % 0 mm
03:26 8.1 °C 6.8 °C 1015.8 hPa Calm     92 % 0 mm
03:31 8.1 °C 7.1 °C 1015.8 hPa Calm     93 % 0 mm
03:36 8.2 °C 7.2 °C 1015.8 hPa Calm     93 % 0 mm
03:41 8.3 °C 7.3 °C 1015.8 hPa Calm     93 % 0 mm
03:46 8.2 °C 7.2 °C 1015.5 hPa Calm     93 % 0 mm
03:51 8.1 °C 6.8 °C 1015.8 hPa Calm     92 % 0 mm
03:56 8 °C 6.8 °C 1015.8 hPa Calm     92 % 0 mm
04:02 7.9 °C 6.9 °C 1015.5 hPa Calm     93 % 0 mm
04:07 7.9 °C 6.9 °C 1015.5 hPa Calm     93 % 0 mm
04:12 7.8 °C 6.6 °C 1015.8 hPa Calm     92 % 0 mm
04:17 7.7 °C 6.4 °C 1015.8 hPa Calm     92 % 0 mm
04:22 7.6 °C 6.3 °C 1015.8 hPa Calm     92 % 0 mm
04:27 7.5 °C 6.3 °C 1015.8 hPa Calm     92 % 0 mm
04:32 7.4 °C 6.2 °C 1015.8 hPa Calm     92 % 0 mm
04:37 7.6 °C 6.5 °C 1016.1 hPa Calm     93 % 0 mm
04:42 7.6 °C 6.6 °C 1016.1 hPa Calm     93 % 0 mm
04:47 7.6 °C 6.6 °C 1016.1 hPa Calm     93 % 0 mm
04:52 7.7 °C 6.6 °C 1016.1 hPa Calm     93 % 0 mm
04:57 7.8 °C 6.7 °C 1016.1 hPa Calm     93 % 0 mm
05:02 7.8 °C 6.9 °C 1016.1 hPa Calm     94 % 0 mm
05:07 7.8 °C 6.9 °C 1016.1 hPa Calm     94 % 0 mm
05:12 7.9 °C 7 °C 1016.1 hPa Calm     94 % 0 mm
05:17 8 °C 7.1 °C 1015.8 hPa Calm     94 % 0 mm
05:22 7.9 °C 7.1 °C 1016.1 hPa Calm     94 % 0 mm
05:27 7.8 °C 6.7 °C 1016.1 hPa Calm     93 % 0 mm
05:32 7.4 °C 6.2 °C 1016.1 hPa Calm     92 % 0 mm
05:37 7.5 °C 6.4 °C 1016.5 hPa Calm     93 % 0 mm
05:42 7.5 °C 6.4 °C 1016.5 hPa Calm     93 % 0 mm
05:47 7.7 °C 6.8 °C 1016.5 hPa Calm     94 % 0 mm
05:52 7.7 °C 6.8 °C 1016.5 hPa Calm     94 % 0 mm
05:53 7.6 °C 6.6 °C 1016.5 hPa Calm     93 % 0 mm
05:58 7.4 °C 6.4 °C 1016.5 hPa Calm     93 % 0 mm
06:03 7.3 °C 6.1 °C 1016.5 hPa Calm     92 % 0 mm
06:08 7.1 °C 5.9 °C 1016.5 hPa Calm     92 % 0 mm
06:13 7.1 °C 6.1 °C 1016.5 hPa Calm     93 % 0 mm
06:18 7.1 °C 6 °C 1016.8 hPa Calm     93 % 0 mm
06:23 7.2 °C 6.3 °C 1016.8 hPa Calm     94 % 0 mm
06:28 7.3 °C 6.4 °C 1016.8 hPa Calm     94 % 0 mm
06:33 7.4 °C 6.6 °C 1016.8 hPa Calm     94 % 0 mm
06:38 7.4 °C 6.6 °C 1016.8 hPa Calm     94 % 0 mm
06:43 7.4 °C 6.6 °C 1017.2 hPa Calm     94 % 0 mm
06:48 7.6 °C 6.7 °C 1017.2 hPa Calm     94 % 0 mm
06:53 7.6 °C 6.7 °C 1017.2 hPa Calm     94 % 0 mm
06:58 7.6 °C 6.7 °C 1017.2 hPa Calm     94 % 0 mm
07:03 7.5 °C 6.4 °C 1017.2 hPa Calm     93 % 0 mm
07:08 7.4 °C 6.4 °C 1017.2 hPa Calm     93 % 0 mm
07:13 7.3 °C 6.2 °C 1017.2 hPa Calm     93 % 0 mm
07:18 7.1 °C 6.1 °C 1017.5 hPa Calm     93 % 0 mm
07:23 7.1 °C 6 °C 1017.5 hPa Calm     93 % 0 mm
07:28 7.1 °C 6 °C 1017.5 hPa Calm     93 % 0 mm
07:33 7.1 °C 6.1 °C 1017.5 hPa Calm     93 % 0 mm
07:39 7.3 °C 6.2 °C 1017.5 hPa Calm     93 % 0 mm
07:44 7.4 °C 6.3 °C 1017.5 hPa Calm     93 % 0 mm
07:49 7.5 °C 6.4 °C 1017.8 hPa Calm     93 % 0 mm
07:54 7.8 °C 6.7 °C 1017.8 hPa Calm     93 % 0 mm
07:59 8.2 °C 7.3 °C 1017.8 hPa Calm     94 % 0 mm
08:04 8.7 °C 7.8 °C 1018.2 hPa Calm     94 % 0 mm
08:09 9.3 °C 8.2 °C 1018.2 hPa Calm     93 % 0 mm
08:14 9.8 °C 8.6 °C 1018.2 hPa NNW 1.9 km/h   92 % 0 mm
08:19 9.9 °C 8.6 °C 1018.2 hPa Calm     91 % 0 mm
08:24 10.3 °C 8.7 °C 1018.5 hPa Calm     90 % 0 mm
08:29 10.6 °C 9.1 °C 1018.5 hPa Calm     90 % 0 mm
08:34 10.8 °C 9.1 °C 1018.5 hPa Calm     89 % 0 mm
08:39 10.8 °C 8.9 °C 1018.5 hPa Calm     88 % 0 mm
08:44 10.8 °C 9.1 °C 1018.5 hPa Calm     89 % 0 mm
08:49 11 °C 9.3 °C 1018.5 hPa Calm     89 % 0 mm
08:54 11.3 °C 9.4 °C 1018.5 hPa Calm     88 % 0 mm
08:59 11.9 °C 10.1 °C 1018.8 hPa Calm     89 % 0 mm
09:04 12.4 °C 10.2 °C 1018.8 hPa Calm     86 % 0 mm
09:09 13.1 °C 10.4 °C 1018.8 hPa Calm     84 % 0 mm
09:14 13.5 °C 10.5 °C 1018.8 hPa South 1.9 km/h   82 % 0 mm
09:19 13.8 °C 10.6 °C 1018.8 hPa Calm     81 % 0 mm
09:24 14.2 °C 10.6 °C 1018.8 hPa ENE 5.6 km/h 5.6 km/h 79 % 0 mm
09:29 14.4 °C 10.8 °C 1018.8 hPa Calm     79 % 0 mm
09:34 14.8 °C 10.8 °C 1019.2 hPa SSE 1.9 km/h 1.9 km/h 77 % 0 mm
09:39 14.9 °C 10.7 °C 1019.2 hPa NE 1.6 km/h 1.6 km/h 76 % 0 mm
09:44 15.1 °C 10.8 °C 1018.8 hPa South 1.9 km/h 1.9 km/h 76 % 0 mm
09:49 15.3 °C 10.7 °C 1019.2 hPa SE 5.6 km/h 5.6 km/h 74 % 0 mm
09:54 15.2 °C 10.6 °C 1019.2 hPa SSE 1.9 km/h 1.9 km/h 74 % 0 mm
09:59 15.6 °C 11.2 °C 1019.2 hPa ESE 1.6 km/h 1.6 km/h 75 % 0 mm
10:04 15.9 °C 11.3 °C 1019.2 hPa ENE 1.9 km/h 1.9 km/h 74 % 0 mm
10:09 16.1 °C 11.1 °C 1019.2 hPa SE 3.7 km/h 3.7 km/h 72 % 0 mm
10:14 16.4 °C 11.3 °C 1019.2 hPa Calm   0.5 km/h 72 % 0 mm
10:19 16.7 °C 11.2 °C 1019.2 hPa ESE 3.7 km/h   70 % 0 mm
10:24 17 °C 11.3 °C 1019.2 hPa ESE 5.6 km/h 5.6 km/h 69 % 0 mm
10:29 17.1 °C 11.4 °C 1019.2 hPa SE 1.9 km/h 1.9 km/h 69 % 0 mm
10:34 17.2 °C 11.1 °C 1019.2 hPa NW 5.6 km/h 5.6 km/h 67 % 0 mm
10:39 17.1 °C 11.4 °C 1019.2 hPa Calm   0.5 km/h 69 % 0 mm
10:44 17.6 °C 11.6 °C 1019.2 hPa SSE 3.7 km/h 3.7 km/h 68 % 0 mm
10:49 17.5 °C 11.1 °C 1019.2 hPa NNW 3.7 km/h 3.7 km/h 66 % 0 mm
10:54 17.7 °C 11.5 °C 1019.2 hPa SE 3.7 km/h 3.7 km/h 67 % 0 mm
10:59 17.9 °C 11.5 °C 1018.8 hPa South 3.7 km/h   66 % 0 mm
11:04 18.2 °C 11.2 °C 1018.8 hPa NW 3.7 km/h 3.7 km/h 64 % 0 mm
11:09 18.4 °C 11.7 °C 1018.8 hPa SSE 1.9 km/h 1.9 km/h 65 % 0 mm
11:14 18.8 °C 11.9 °C 1018.8 hPa NW 1.6 km/h 1.6 km/h 64 % 0 mm
11:19 18.8 °C 11.6 °C 1018.8 hPa NW 3.7 km/h   63 % 0 mm
11:24 19 °C 12.1 °C 1018.8 hPa Calm   0.3 km/h 64 % 0 mm
11:29 19.3 °C 11.9 °C 1018.8 hPa NW 1.9 km/h 1.9 km/h 62 % 0 mm
11:34 19.7 °C 11.7 °C 1018.8 hPa WNW 3.7 km/h 3.7 km/h 60 % 0 mm
11:39 19.8 °C 11.8 °C 1018.8 hPa SSW 1.9 km/h 1.9 km/h 60 % 0 mm
11:44 20 °C 12.2 °C 1018.8 hPa NE 1.9 km/h   61 % 0 mm
11:49 19.9 °C 11.4 °C 1018.5 hPa NW 1.9 km/h 1.9 km/h 58 % 0 mm
11:54 20.1 °C 11.8 °C 1018.5 hPa SE 5.6 km/h 5.6 km/h 59 % 0 mm
12:00 20.3 °C 12.1 °C 1018.5 hPa NNW 3.7 km/h 3.7 km/h 59 % 0 mm
12:05 20.5 °C 12.2 °C 1018.5 hPa NNW 3.7 km/h 3.7 km/h 59 % 0 mm
12:10 20.3 °C 12.1 °C 1018.5 hPa Calm     59 % 0 mm
12:15 20.4 °C 11.9 °C 1018.2 hPa SE 3.7 km/h 3.7 km/h 58 % 0 mm
12:20 20.8 °C 12.4 °C 1018.2 hPa Calm     59 % 0 mm
12:25 20.9 °C 12.1 °C 1018.2 hPa NW 3.2 km/h 3.2 km/h 57 % 0 mm
12:30 20.7 °C 12.1 °C 1018.2 hPa NW 1.9 km/h 1.9 km/h 58 % 0 mm
12:35 20.9 °C 12.1 °C 1017.8 hPa NW 1.9 km/h 1.9 km/h 57 % 0 mm
12:40 21 °C 12.4 °C 1017.8 hPa East 3.2 km/h 3.2 km/h 58 % 0 mm
12:45 21.4 °C 12.5 °C 1017.8 hPa South 4.8 km/h 4.8 km/h 57 % 0 mm
12:50 21.7 °C 12.8 °C 1017.8 hPa NW 3.2 km/h 3.2 km/h 57 % 0 mm
12:55 21.3 °C 12.2 °C 1017.8 hPa NW 3.2 km/h 3.2 km/h 56 % 0 mm
13:00 21.1 °C 12.3 °C 1017.8 hPa SE 1.9 km/h 1.9 km/h 57 % 0 mm
13:05 21.4 °C 12.8 °C 1017.8 hPa South 1.9 km/h 1.9 km/h 58 % 0 mm
13:10 21.4 °C 12.2 °C 1017.5 hPa SSW 5.6 km/h 5.6 km/h 56 % 0 mm
13:15 21.6 °C 12.7 °C 1017.5 hPa SE 1.9 km/h 1.9 km/h 57 % 0 mm
13:20 21.7 °C 12.5 °C 1017.5 hPa Calm     56 % 0 mm
13:25 21.9 °C 12.7 °C 1017.5 hPa NNW 3.7 km/h 3.7 km/h 56 % 0 mm
13:30 21.9 °C 12.8 °C 1017.5 hPa SSE 5.6 km/h 5.6 km/h 56 % 0 mm
13:35 22.2 °C 13 °C 1017.5 hPa NW 3.2 km/h 3.2 km/h 56 % 0 mm
13:40 22 °C 12.6 °C 1017.2 hPa WNW 3.7 km/h 3.7 km/h 55 % 0 mm
13:45 21.8 °C 12.1 °C 1017.2 hPa West 5.6 km/h 5.6 km/h 54 % 0 mm
13:50 21.8 °C 12.1 °C 1017.2 hPa NW 1.9 km/h 1.9 km/h 54 % 0 mm
13:55 21.7 °C 12 °C 1017.2 hPa West 1.9 km/h 1.9 km/h 54 % 0 mm
14:00 21.7 °C 11.4 °C 1017.2 hPa NW 3.7 km/h 3.7 km/h 52 % 0 mm
14:05 21.7 °C 12 °C 1017.2 hPa Calm     54 % 0 mm
14:10 21.9 °C 11.6 °C 1016.8 hPa NW 1.9 km/h   52 % 0 mm
14:15 22.1 °C 11.5 °C 1016.8 hPa Calm     51 % 0 mm
14:20 22.3 °C 12 °C 1016.8 hPa SSW 1.9 km/h 1.9 km/h 52 % 0 mm
14:25 22.3 °C 11.1 °C 1016.8 hPa SSE 1.9 km/h   49 % 0 mm
14:30 22.2 °C 11.6 °C 1016.8 hPa Calm   0.3 km/h 51 % 0 mm
14:35 22.2 °C 11.6 °C 1016.8 hPa NW 1.9 km/h   51 % 0 mm
14:40 22.3 °C 11.1 °C 1016.8 hPa NNW 1.9 km/h   49 % 0 mm
14:45 22.3 °C 10.7 °C 1016.8 hPa NW 1.9 km/h 1.9 km/h 48 % 0 mm
14:50 22.3 °C 10.8 °C 1016.8 hPa West 1.9 km/h   48 % 0 mm
14:55 22.3 °C 10.4 °C 1016.8 hPa Calm     47 % 0 mm
15:00 22.4 °C 10.8 °C 1016.8 hPa WSW 3.7 km/h 3.7 km/h 48 % 0 mm
15:05 22.3 °C 10.4 °C 1016.8 hPa WNW 1.9 km/h   47 % 0 mm
15:10 22.3 °C 10.2 °C 1016.8 hPa Calm   0.6 km/h 46 % 0 mm
15:15 22.3 °C 10.1 °C 1016.8 hPa NW 3.7 km/h 3.7 km/h 46 % 0 mm
15:20 22.2 °C 10.1 °C 1016.8 hPa Calm     46 % 0 mm
15:25 22.2 °C 10 °C 1016.8 hPa WNW 1.9 km/h 1.9 km/h 46 % 0 mm
15:30 22.2 °C 10.1 °C 1016.8 hPa NW 1.9 km/h   46 % 0 mm
15:35 22.2 °C 10 °C 1016.8 hPa Calm     46 % 0 mm
15:40 22.1 °C 10.9 °C 1016.8 hPa WNW 1.9 km/h 1.9 km/h 49 % 0 mm
15:45 22.1 °C 10.2 °C 1016.8 hPa Calm     47 % 0 mm
15:50 22 °C 10.8 °C 1016.8 hPa NW 1.9 km/h 1.9 km/h 49 % 0 mm
15:55 22 °C 10.8 °C 1016.8 hPa WNW 3.7 km/h 3.7 km/h 49 % 0 mm
16:00 21.9 °C 10.7 °C 1016.8 hPa Calm     49 % 0 mm
16:05 21.9 °C 10.4 °C 1016.8 hPa WNW 3.7 km/h   48 % 0 mm
16:10 21.8 °C 10.6 °C 1016.8 hPa Calm     49 % 0 mm
16:15 21.7 °C 10.6 °C 1016.8 hPa Calm     49 % 0 mm
16:20 21.7 °C 10.8 °C 1016.8 hPa Calm     50 % 0 mm
16:25 21.6 °C 11.1 °C 1016.8 hPa Calm     51 % 0 mm
16:30 21.5 °C 10.9 °C 1017.2 hPa Calm     51 % 0 mm
16:36 21.4 °C 10.9 °C 1016.8 hPa WNW 1.9 km/h 1.9 km/h 51 % 0 mm
16:41 21.4 °C 10.6 °C 1016.8 hPa Calm     50 % 0 mm
16:45 21.3 °C 11 °C 1016.8 hPa Calm     52 % 0 mm
16:50 21.1 °C 11.2 °C 1016.8 hPa Calm     53 % 0 mm
16:56 20.9 °C 11 °C 1016.8 hPa Calm     53 % 0 mm
17:01 20.8 °C 11.1 °C 1016.8 hPa Calm     54 % 0 mm
17:06 20.6 °C 11.4 °C 1017.2 hPa NW 1.9 km/h 1.9 km/h 56 % 0 mm
17:11 20.4 °C 11.6 °C 1017.2 hPa Calm     57 % 0 mm
17:16 20.1 °C 11.8 °C 1017.2 hPa Calm     59 % 0 mm
17:21 19.7 °C 11.7 °C 1017.2 hPa Calm     60 % 0 mm
17:26 19.4 °C 11.7 °C 1017.2 hPa Calm     61 % 0 mm
17:31 19.1 °C 11.7 °C 1017.5 hPa Calm     62 % 0 mm
17:36 18.7 °C 11.5 °C 1017.5 hPa Calm     63 % 0 mm
17:41 18.3 °C 11.6 °C 1017.5 hPa Calm     65 % 0 mm
17:46 18 °C 11.6 °C 1017.5 hPa Calm     66 % 0 mm
17:51 17.7 °C 11.5 °C 1017.8 hPa Calm     67 % 0 mm
17:56 17.5 °C 11.5 °C 1017.8 hPa Calm     68 % 0 mm
18:01 17.3 °C 11.6 °C 1017.8 hPa Calm     69 % 0 mm
18:06 17.1 °C 11.4 °C 1017.8 hPa Calm     69 % 0 mm
18:11 16.9 °C 11.6 °C 1017.8 hPa Calm     71 % 0 mm
18:16 16.5 °C 11.4 °C 1018.2 hPa Calm     72 % 0 mm
18:21 16.2 °C 11.1 °C 1018.2 hPa Calm     72 % 0 mm
18:26 15.9 °C 11.3 °C 1018.2 hPa Calm     74 % 0 mm
18:31 15.7 °C 11.3 °C 1018.2 hPa Calm     75 % 0 mm
18:36 15.6 °C 11.2 °C 1018.2 hPa Calm     75 % 0 mm
18:41 15.3 °C 11.1 °C 1018.2 hPa Calm     76 % 0 mm
18:46 15.1 °C 11.1 °C 1018.5 hPa Calm     77 % 0 mm
18:51 14.9 °C 11.1 °C 1018.5 hPa Calm     78 % 0 mm
18:56 14.8 °C 11 °C 1018.5 hPa Calm     78 % 0 mm
19:01 14.7 °C 11.1 °C 1018.5 hPa Calm     79 % 0 mm
19:06 14.6 °C 10.8 °C 1018.5 hPa Calm     78 % 0 mm
19:11 14.4 °C 10.8 °C 1018.5 hPa Calm     79 % 0 mm
19:16 14.3 °C 10.9 °C 1018.5 hPa Calm     80 % 0 mm
19:21 14.3 °C 10.9 °C 1018.8 hPa Calm     80 % 0 mm
19:26 14.3 °C 10.9 °C 1018.8 hPa Calm     80 % 0 mm
19:31 14.2 °C 10.8 °C 1019.2 hPa Calm     80 % 0 mm
19:36 14.2 °C 11 °C 1019.2 hPa Calm     81 % 0 mm
19:41 14.4 °C 11 °C 1019.5 hPa Calm     80 % 0 mm
19:46 14.4 °C 11.2 °C 1019.2 hPa Calm     81 % 0 mm
19:51 14.2 °C 11 °C 1019.2 hPa Calm     81 % 0 mm
19:56 14 °C 10.8 °C 1019.2 hPa Calm     81 % 0 mm
20:01 13.9 °C 10.7 °C 1019.2 hPa Calm     81 % 0 mm
20:06 13.8 °C 10.6 °C 1019.5 hPa Calm     81 % 0 mm
20:11 13.6 °C 10.4 °C 1019.5 hPa Calm     81 % 0 mm
20:16 13.4 °C 10.4 °C 1019.5 hPa Calm     82 % 0 mm
20:21 13.3 °C 10.3 °C 1019.5 hPa Calm     82 % 0 mm
20:26 13.2 °C 10.2 °C 1019.5 hPa Calm     82 % 0 mm
20:31 13.1 °C 10.2 °C 1019.5 hPa Calm     83 % 0 mm
20:36 12.9 °C 10.2 °C 1019.9 hPa Calm     84 % 0 mm
20:41 12.5 °C 9.7 °C 1019.9 hPa Calm     83 % 0 mm
20:46 12.1 °C 9.5 °C 1019.9 hPa Calm     84 % 0 mm
20:51 12 °C 9.7 °C 1019.9 hPa Calm     86 % 0 mm
20:56 12.2 °C 9.9 °C 1019.9 hPa Calm     86 % 0 mm
21:01 12.4 °C 10.1 °C 1020.2 hPa Calm     86 % 0 mm
21:06 12.5 °C 10.1 °C 1020.2 hPa Calm     85 % 0 mm
21:11 12.4 °C 10 °C 1020.2 hPa Calm     85 % 0 mm
21:16 12.4 °C 9.9 °C 1020.2 hPa Calm     85 % 0 mm
21:21 12.2 °C 9.8 °C 1020.5 hPa Calm     85 % 0 mm
21:26 12.1 °C 9.6 °C 1020.2 hPa Calm     85 % 0 mm
21:31 12 °C 9.7 °C 1020.5 hPa Calm     86 % 0 mm
21:36 11.8 °C 9.4 °C 1020.5 hPa Calm     85 % 0 mm
21:41 11.6 °C 9.3 °C 1020.5 hPa Calm     86 % 0 mm
21:46 11.4 °C 9.3 °C 1020.5 hPa Calm     87 % 0 mm
21:51 11.4 °C 9.4 °C 1020.9 hPa Calm     88 % 0 mm
21:56 11.4 °C 9.5 °C 1020.9 hPa Calm     88 % 0 mm
22:01 11.3 °C 9.2 °C 1020.9 hPa Calm     87 % 0 mm
22:06 11.2 °C 9.3 °C 1020.9 hPa Calm     88 % 0 mm
22:11 11.2 °C 9.3 °C 1020.9 hPa Calm     88 % 0 mm
22:16 11.2 °C 9.4 °C 1020.9 hPa Calm     89 % 0 mm
22:21 11.2 °C 9.5 °C 1021.2 hPa Calm     89 % 0 mm
22:26 11.2 °C 9.3 °C 1021.2 hPa Calm     88 % 0 mm
22:31 11.2 °C 9.3 °C 1021.2 hPa Calm     88 % 0 mm
22:36 11 °C 8.9 °C 1021.2 hPa Calm     87 % 0 mm
22:41 10.9 °C 9 °C 1021.2 hPa Calm     88 % 0 mm
22:46 10.8 °C 8.9 °C 1021.2 hPa Calm     88 % 0 mm
22:51 10.7 °C 8.8 °C 1021.6 hPa Calm     88 % 0 mm
22:56 10.7 °C 8.8 °C 1021.6 hPa Calm     88 % 0 mm
23:01 10.7 °C 8.8 °C 1021.6 hPa Calm     88 % 0 mm
23:06 10.6 °C 8.7 °C 1021.6 hPa Calm     88 % 0 mm
23:11 10.4 °C 8.4 °C 1021.6 hPa Calm     87 % 0 mm
23:16 10.2 °C 8.2 °C 1021.6 hPa Calm     87 % 0 mm
23:22 10.1 °C 8.2 °C 1021.6 hPa Calm     88 % 0 mm
23:27 10 °C 8.3 °C 1021.6 hPa Calm     89 % 0 mm
23:32 9.9 °C 8.4 °C 1021.6 hPa Calm     90 % 0 mm
23:37 10.1 °C 8.7 °C 1021.6 hPa Calm     91 % 0 mm
23:42 10.2 °C 8.8 °C 1021.9 hPa Calm     91 % 0 mm
23:47 10.2 °C 8.8 °C 1021.9 hPa Calm     91 % 0 mm
23:52 10.3 °C 8.7 °C 1021.9 hPa Calm     90 % 0 mm
23:57 10.2 °C 8.4 °C 1021.9 hPa Calm     89 % 0 mm
Park Place, Exeter, Tulare County, California, USA
Compliments of Weather Underground - 2.75 mb